• Join FlightAware (Why Join?)
  • Login
  • US Flag 
10:40AM EST


 

Airport Tracker/Info


-or-


 

Live Flight TrackerFlight Track Log ✈ SSX929 ✈ 05-Mar-2011 ✈ KDEN - KASE

Flight Track Log - Related Links

Times and Time Zones

All times are in EST time to prevent confusion due to time zone crossing. See the SSX929 flight status page for this flight to view local times or setup timezone preferences in your user account.

Time Position Orientation Groundspeed Altitude Reporting Facility
EST Latitude Longitude Course Direction KTS MPH feet Rate Location/Type
10:24AM 39.8048 -104.6520 179° South -1  Level FlightAware Approximate
10:25AM 39.7333 -104.6500 237° Southwest 227 261 9,800 5,700 Climbing Denver TRACON
10:26AM 39.7000 -104.7170 252° West 224 258 11,900 2,160 Climbing Denver TRACON
10:27AM 39.6833 -104.7830 285° West 220 253 14,000 2,220 Climbing Denver TRACON
10:28AM 39.7000 -104.8670 271° West 218 251 16,400 1,680 Climbing Denver TRACON
10:29AM 39.7006 -104.9560 277° West 221 254 18,000 1,380 Climbing Denver Center
10:30AM 39.7078 -105.0370 276° West 230 265 19,600 1,680 Climbing Denver Center
10:31AM 39.7150 -105.1210 276° West 242 278 21,400 1,500 Climbing Denver Center
10:32AM 39.7222 -105.2070 276° West 232 267 22,700 1,200 Climbing Denver Center
10:33AM 39.7294 -105.2930 272° West 232 267 23,900 600 Climbing Denver Center
10:34AM 39.7325 -105.3880 260° West 248 285 24,000  Climbing Denver Center
10:35AM 39.7186 -105.4880 261° West 278 320 24,000  Level Denver Center
10:36AM 39.7050 -105.5960 260° West 299 344 24,100  Climbing Denver Center
10:37AM 39.6911 -105.7010 255° West 305 351 24,100  Level Denver Center
10:38AM 39.6689 -105.8120 254° West 310 357 24,100 -300 Level Denver Center
10:39AM 39.6444 -105.9230 255° West 322 371 23,500 -960 Descending Denver Center
10:40AM 39.6200 -106.0390 254° West 330 380 22,200 -1,320 Descending Denver Center
10:41AM 39.5953 -106.1520 258° West 330 380 20,900 -1,080 Descending Denver Center
10:42AM 39.5789 -106.2500 254° West 330 380 20,100 -480 Descending Denver Center
10:43AM 39.5561 -106.3550 256° West 319 367 20,000 -60 Descending Denver Center
10:44AM 39.5331 -106.4710 254° West 314 361 20,000 -60 Level Denver Center
10:45AM 39.5103 -106.5730 256° West 308 354 19,900 -600 Descending Denver Center
10:46AM 39.4956 -106.6480 249° West 270 311 18,900 -1,260 Descending Denver Center
10:47AM 39.4744 -106.7180 252° West 219 252 17,600 -1,800 Descending Denver Center
10:48AM 39.4514 -106.8070 207° Southwest 223 257 15,300 -1,740 Descending Denver Center
10:49AM 39.3950 -106.8440 199° South 213 245 13,900 -1,620 Descending Denver Center
10:50AM 39.3489 -106.8650 203° Southwest 205 236 12,100 -2,040 Descending Denver Center
10:51AM 39.3136 -106.8840 207° Southwest 141 162 10,200 -1,380 Descending Denver Center
10:52AM 39.2653 -106.9160 204° Southwest 185 213 9,400 4,380 Descending Denver Center
10:54AM 39.1714 -106.9690 203° Southwest 185 213 24,000 4,860 Climbing Denver Center
10:55AM 39.1233 -106.9950 203° Southwest 185 213 24,000  Level Denver Center